アテネ の空港の天気 - METARとTAF

アテネ国際空港 ( LGAV / ATH ) - ギリシャ アテネ
飛行場実況気象(Metar)
観測時間01/23 09:50 EET (01/23 07:50 UTC)
風向・風速北 6m/s
視程10km以上
天気現象
少しの雲 雲底高度 760m
全天の4割程度の雲 雲底高度 2130m
気温8℃
湿度61%
気圧1017hPa
METARLGAV 230750Z 36012KT 9999 FEW025 SCT070 08/01 Q1017 NOSIG
過去の天気等 Google飛行場航空写真 Wunderground天気予報

過去48時間のMETAR

飛行場予報(TAF)
発表時間: 1/23 07:00 EET (1/23 05:00 UTC)
予報対象時間: 23日8時 EET ~ 24日8時 EET
風向・風速北北東 8m/s
視程10km以上
少しの雲 雲底高度 1,070m
全天の8割程度の雲 雲底高度 1,520m
23日8時 EET から 確率 30% で
視程5,000m
天気現象
全天の4割程度の雲 雲底高度 550m
全天の8割程度の雲 雲底高度 1,220m
23日18時 EET ~ 23日20時 EET に徐々に
風向・風速北北東 10m/s 瞬間風速 15m/s
TAF LGAV 230500Z 2306/2406 02015KT 9999 FEW035 BKN050
PROB30 2306/2324 5000 RA SCT018 BKN040
BECMG 2316/2318 03020G30KT